Time;durP1;ratioP1;P1;durP2;ratioP2;P2;SDS_P1;SDS_P2;PMS_P1;PMS_P2;Temp;Humidity;BMP_temperature;BMP_pressure;BME280_temperature;BME280_humidity;BME280_pressure;Samples;Min_cycle;Max_cycle;Signal;HPM_P1;HPM_P2
2023/04/26 00:00:43;;;;;;;12.63;3.75;;;8.40;70.50;;;7.57;54.81;100833.66;4954927;28;20046;-76
2023/04/26 00:03:11;;;;;;;10.35;3.78;;;8.40;70.50;;;7.52;55.22;100834.19;4969950;28;20078;-80
2023/04/26 00:05:39;;;;;;;9.65;3.58;;;8.30;70.70;;;7.47;55.04;100834.75;4973513;28;20308;-78
2023/04/26 00:08:06;;;;;;;12.60;3.58;;;8.30;70.70;;;7.44;54.89;100829.78;4971889;28;20057;-79
2023/04/26 00:10:34;;;;;;;9.50;3.35;;;8.30;70.70;;;7.38;55.25;100838.47;4980509;28;20387;-77
2023/04/26 00:13:02;;;;;;;14.18;3.65;;;8.20;70.70;;;7.35;55.15;100841.47;4969741;28;20046;-79
2023/04/26 00:15:29;;;;;;;9.40;3.30;;;8.20;70.90;;;7.32;55.31;100833.91;4968308;28;20053;-76
2023/04/26 00:17:56;;;;;;;11.85;3.13;;;8.10;71.30;;;7.26;55.72;100829.28;4969795;28;20042;-77
2023/04/26 00:20:24;;;;;;;11.10;3.88;;;8.10;71.50;;;7.24;55.58;100833.97;4969913;28;20143;-76
2023/04/26 00:22:51;;;;;;;7.50;3.50;;;8.00;71.60;;;7.20;55.95;100832.69;4969997;28;20042;-76
2023/04/26 00:25:18;;;;;;;11.43;3.72;;;8.00;71.70;;;7.18;55.95;100829.38;4970093;28;20042;-79
2023/04/26 00:27:47;;;;;;;16.67;4.35;;;7.90;71.90;;;7.14;55.88;100828.09;4971161;28;20043;-78
2023/04/26 00:30:15;;;;;;;9.73;3.53;;;7.90;71.80;;;7.11;55.93;100823.16;4978158;28;20043;-79
2023/04/26 00:32:42;;;;;;;9.00;3.88;;;7.90;71.80;;;7.09;55.93;100822.50;4950322;28;20050;-79
2023/04/26 00:35:10;;;;;;;13.63;4.05;;;7.80;71.70;;;7.05;55.97;100822.03;4950418;28;20105;-79
2023/04/26 00:37:37;;;;;;;11.25;4.13;;;7.80;71.90;;;7.01;55.84;100819.91;4969060;28;20105;-77
2023/04/26 00:40:06;;;;;;;8.02;4.07;;;7.80;72.20;;;6.96;56.26;100820.44;4959989;28;20046;-78
2023/04/26 00:42:33;;;;;;;10.38;4.50;;;7.70;72.10;;;6.93;56.28;100816.34;4962192;28;20046;-78
2023/04/26 00:45:02;;;;;;;13.98;4.45;;;7.70;72.30;;;6.90;56.19;100821.19;4970081;28;20122;-77
2023/04/26 00:47:30;;;;;;;12.13;4.50;;;7.70;72.10;;;6.86;56.04;100818.06;4951523;28;20042;-77
2023/04/26 00:49:59;;;;;;;8.02;3.58;;;7.60;72.10;;;6.81;56.00;100817.75;4966071;28;20047;-79
2023/04/26 00:52:27;;;;;;;10.23;4.40;;;7.60;72.10;;;6.77;56.26;100818.28;4969299;28;20078;-77
2023/04/26 00:54:55;;;;;;;11.73;4.55;;;7.60;72.30;;;6.72;56.32;100809.03;4968434;28;20146;-77
2023/04/26 00:57:23;;;;;;;13.02;4.25;;;7.60;72.50;;;6.69;56.37;100811.25;4969991;28;20050;-78
2023/04/26 00:59:50;;;;;;;9.60;4.35;;;7.50;72.60;;;6.65;56.57;100807.28;4972450;28;20042;-79
2023/04/26 01:02:22;;;;;;;13.35;4.60;;;7.40;72.50;;;6.61;56.02;100812.13;4968352;28;20049;-79
2023/04/26 01:04:49;;;;;;;17.23;4.60;;;7.40;72.30;;;6.56;56.21;100809.19;4975009;28;20522;-76
2023/04/26 01:07:17;;;;;;;13.82;4.88;;;7.30;72.50;;;6.54;56.28;100812.97;4969773;28;20050;-77
2023/04/26 01:09:44;;;;;;;13.60;5.35;;;7.30;72.80;;;6.50;56.44;100809.06;4973340;28;20426;-77
2023/04/26 01:12:13;;;;;;;11.85;4.75;;;7.30;72.80;;;6.47;56.66;100807.56;4968201;28;20046;-78
2023/04/26 01:14:40;;;;;;;10.68;4.47;;;7.20;72.70;;;6.44;56.54;100814.06;4969561;28;20075;-78
2023/04/26 01:17:08;;;;;;;10.70;4.43;;;7.20;72.90;;;6.44;56.56;100815.88;4959624;28;20043;-77
2023/04/26 01:19:46;;;;;;;9.15;4.60;;;7.20;73.00;;;6.42;56.95;100823.19;4970479;28;20109;-76
2023/04/26 01:22:13;;;;;;;14.25;5.88;;;7.20;73.10;;;6.39;56.93;100815.56;4970247;28;20045;-76
2023/04/26 01:24:44;;;;;;;10.85;4.35;;;7.10;73.20;;;6.36;56.62;100826.53;4953450;29;20055;-77
2023/04/26 01:27:13;;;;;;;10.45;4.22;;;7.10;73.40;;;6.34;57.23;100817.91;4968651;28;20694;-76
2023/04/26 01:29:41;;;;;;;13.43;4.80;;;7.10;73.40;;;6.31;57.11;100827.06;4971833;28;20098;-78
2023/04/26 01:32:08;;;;;;;10.60;4.40;;;7.00;73.50;;;6.29;56.92;100826.38;4975953;28;20097;-77
2023/04/26 01:34:36;;;;;;;11.63;3.90;;;7.00;73.60;;;6.28;57.24;100826.56;4971601;28;20042;-77
2023/04/26 01:37:03;;;;;;;10.68;4.13;;;7.00;73.70;;;6.25;57.48;100830.41;4973117;28;20601;-78
2023/04/26 01:39:30;;;;;;;16.42;4.60;;;7.00;73.90;;;6.20;57.17;100830.09;4975993;28;20311;-77
2023/04/26 01:41:59;;;;;;;15.30;4.40;;;6.90;73.80;;;6.17;57.19;100825.97;4971255;28;20101;-78
2023/04/26 01:44:26;;;;;;;11.18;4.30;;;6.90;73.80;;;6.14;57.09;100823.66;4973679;28;20560;-77
2023/04/26 01:46:53;;;;;;;8.80;3.58;;;6.90;73.90;;;6.11;57.08;100826.66;4968937;28;20137;-79
2023/04/26 01:49:20;;;;;;;8.27;4.00;;;6.90;74.00;;;6.08;57.42;100820.88;4972786;28;20070;-79
2023/04/26 01:51:48;;;;;;;11.35;4.10;;;6.80;74.00;;;6.04;57.65;100815.09;4957628;28;20134;-77
2023/04/26 01:54:15;;;;;;;12.95;4.10;;;6.80;73.90;;;6.02;57.34;100822.41;4973366;28;20803;-77
2023/04/26 01:56:42;;;;;;;9.52;3.83;;;6.80;74.20;;;6.03;57.43;100824.03;4973195;28;20113;-76
2023/04/26 01:59:11;;;;;;;9.80;3.67;;;6.70;74.30;;;6.01;57.53;100830.53;4953525;28;20073;-77
2023/04/26 02:01:38;;;;;;;11.10;3.95;;;6.70;74.50;;;5.98;57.78;100831.69;4959690;28;20046;-79
2023/04/26 02:04:05;;;;;;;9.70;4.05;;;6.70;74.40;;;5.93;57.79;100824.25;4964729;28;20047;-78
2023/04/26 02:06:32;;;;;;;14.82;4.07;;;6.70;74.40;;;5.93;57.83;100826.09;4958265;28;20077;-76
2023/04/26 02:08:59;;;;;;;8.88;3.70;;;6.70;74.30;;;5.92;57.60;100824.44;4967369;28;20418;-76
2023/04/26 02:11:27;;;;;;;11.95;4.82;;;6.70;74.50;;;5.89;57.60;100835.31;4968986;28;20505;-79
2023/04/26 02:13:54;;;;;;;10.23;4.25;;;6.60;74.50;;;5.89;57.60;100827.38;4977299;28;20077;-77
2023/04/26 02:16:23;;;;;;;10.30;4.25;;;6.60;74.70;;;5.86;58.09;100830.41;4954745;28;20578;-77
2023/04/26 02:18:52;;;;;;;10.15;4.35;;;6.60;74.60;;;5.83;57.60;100822.78;4971844;28;20130;-77
2023/04/26 02:21:19;;;;;;;10.40;4.60;;;6.60;74.70;;;5.82;58.24;100829.09;4962932;28;20044;-76
2023/04/26 02:23:47;;;;;;;10.10;4.43;;;6.60;75.00;;;5.79;58.32;100832.06;4972361;28;20126;-77
2023/04/26 02:26:15;;;;;;;9.15;3.85;;;6.50;74.70;;;5.76;58.40;100832.38;4951361;28;20055;-78
2023/04/26 02:28:44;;;;;;;11.88;4.15;;;6.50;74.90;;;5.76;58.18;100832.38;4966598;28;20458;-77
2023/04/26 02:31:11;;;;;;;12.15;4.40;;;6.50;74.80;;;5.75;57.89;100830.75;4954532;28;20074;-77
2023/04/26 02:33:40;;;;;;;11.48;4.07;;;6.50;74.90;;;5.71;58.14;100835.56;4954912;28;20038;-76
2023/04/26 02:36:08;;;;;;;10.80;4.68;;;6.50;75.00;;;5.68;58.00;100841.19;4953113;28;20061;-76
2023/04/26 02:38:36;;;;;;;12.82;4.63;;;6.50;74.90;;;5.65;58.51;100830.94;4952644;28;20051;-77
2023/04/26 02:41:05;;;;;;;9.80;4.70;;;6.40;75.20;;;5.63;58.23;100830.31;4955989;28;20059;-78
2023/04/26 02:43:33;;;;;;;13.23;5.20;;;6.30;75.30;;;5.61;58.46;100827.84;4962757;28;20046;-79
2023/04/26 02:46:01;;;;;;;12.13;5.25;;;6.40;75.50;;;5.61;58.36;100826.97;4953769;28;20504;-76
2023/04/26 02:48:28;;;;;;;9.82;4.68;;;6.40;75.40;;;5.56;58.52;100819.56;4976764;28;20054;-77
2023/04/26 02:50:56;;;;;;;9.50;4.63;;;6.30;75.30;;;5.55;58.47;100822.38;4978496;28;20043;-78
2023/04/26 02:53:24;;;;;;;11.23;5.15;;;6.30;75.30;;;5.53;58.48;100827.84;4954228;28;20097;-79
2023/04/26 02:55:51;;;;;;;14.27;5.55;;;6.30;75.50;;;5.50;58.42;100820.25;4971599;28;20046;-77
2023/04/26 02:58:18;;;;;;;16.33;5.60;;;6.30;75.40;;;5.50;58.44;100825.53;4957427;28;20039;-77
2023/04/26 03:00:47;;;;;;;12.88;5.97;;;6.20;75.40;;;5.47;58.67;100823.25;4963566;28;20149;-76
2023/04/26 03:03:15;;;;;;;12.30;6.03;;;6.20;75.50;;;5.45;58.49;100816.44;4945464;28;20070;-77
2023/04/26 03:05:42;;;;;;;15.95;6.15;;;6.20;75.50;;;5.45;58.36;100824.38;4958425;28;20049;-76
2023/04/26 03:08:11;;;;;;;14.70;6.70;;;6.20;75.60;;;5.43;58.62;100816.63;4962856;28;20101;-77
2023/04/26 03:10:38;;;;;;;16.58;6.82;;;6.10;75.50;;;5.41;58.76;100819.41;4960508;28;20062;-77
2023/04/26 03:13:06;;;;;;;11.65;6.10;;;6.10;75.70;;;5.39;58.76;100816.13;4953626;28;20053;-77
2023/04/26 03:15:33;;;;;;;16.85;6.95;;;6.10;75.60;;;5.37;58.63;100820.78;4953459;28;20043;-77
2023/04/26 03:18:00;;;;;;;17.98;6.65;;;6.10;75.60;;;5.37;58.71;100817.31;4952536;28;20579;-76
2023/04/26 03:20:28;;;;;;;17.35;6.82;;;6.10;75.80;;;5.37;58.78;100814.66;4953868;28;20046;-78
2023/04/26 03:22:55;;;;;;;15.98;6.82;;;6.10;76.10;;;5.35;59.07;100814.00;4952233;28;20046;-77
2023/04/26 03:25:24;;;;;;;15.88;6.70;;;6.00;75.90;;;5.35;58.72;100814.81;4978028;28;20065;-79
2023/04/26 03:27:51;;;;;;;16.95;7.15;;;6.10;76.10;;;5.34;58.74;100812.34;4972196;28;20046;-77
2023/04/26 03:30:18;;;;;;;20.00;7.40;;;6.10;76.20;;;5.33;59.14;100816.00;4964021;28;20043;-76
2023/04/26 03:32:46;;;;;;;16.67;6.47;;;6.00;76.10;;;5.31;58.93;100813.50;4952532;28;20057;-77
2023/04/26 03:35:13;;;;;;;13.63;7.00;;;6.00;76.00;;;5.30;59.19;100811.03;4952672;28;20515;-76
2023/04/26 03:37:40;;;;;;;13.63;6.60;;;6.00;76.20;;;5.29;59.21;100804.09;4963236;28;20113;-77
2023/04/26 03:40:12;;;;;;;15.45;6.47;;;6.00;76.20;;;5.28;58.69;100807.75;4963145;28;20417;-77
2023/04/26 03:42:41;;;;;;;13.13;6.10;;;6.00;76.20;;;5.26;58.92;100805.25;4951876;28;20051;-77
2023/04/26 03:45:09;;;;;;;18.10;6.65;;;6.00;76.20;;;5.23;58.67;100800.31;4980815;28;20066;-77
2023/04/26 03:47:37;;;;;;;12.73;6.30;;;5.90;76.30;;;5.23;58.98;100799.50;4963632;28;20053;-76
2023/04/26 03:50:05;;;;;;;14.57;6.70;;;5.90;76.20;;;5.22;58.73;100803.09;4951901;28;20133;-77
2023/04/26 03:52:32;;;;;;;14.35;6.28;;;5.90;76.20;;;5.20;58.89;100795.34;4952823;28;20567;-76
2023/04/26 03:55:00;;;;;;;14.13;6.00;;;5.90;76.20;;;5.19;58.59;100804.28;4953195;28;20133;-77
2023/04/26 03:57:28;;;;;;;16.30;6.90;;;5.90;76.00;;;5.18;58.64;100801.81;4961997;28;20120;-79
2023/04/26 03:59:56;;;;;;;16.55;7.10;;;5.90;76.20;;;5.16;59.01;100801.97;4952405;28;20174;-79
2023/04/26 04:02:24;;;;;;;14.07;6.85;;;5.90;76.20;;;5.15;58.98;100808.25;4951634;28;20035;-78
2023/04/26 04:04:51;;;;;;;17.65;7.07;;;5.90;76.30;;;5.13;58.81;100797.03;4969306;28;20115;-79
2023/04/26 04:07:18;;;;;;;14.25;7.10;;;5.90;76.20;;;5.12;58.69;100804.13;4966215;28;20044;-77
2023/04/26 04:09:46;;;;;;;18.05;7.40;;;5.80;76.10;;;5.09;58.73;100804.47;4952715;28;20597;-81
2023/04/26 04:12:13;;;;;;;17.95;7.13;;;5.80;76.20;;;5.07;58.68;100805.59;4957693;28;20034;-77
2023/04/26 04:14:41;;;;;;;16.08;7.07;;;5.80;76.10;;;5.04;59.04;100805.97;4952856;28;20582;-83
2023/04/26 04:17:10;;;;;;;15.70;6.95;;;5.80;76.20;;;5.03;58.78;100810.41;4954920;28;20074;-79
2023/04/26 04:19:38;;;;;;;14.02;6.97;;;5.80;76.10;;;5.01;58.83;100806.28;4960711;28;20105;-80
2023/04/26 04:22:05;;;;;;;15.70;7.00;;;5.70;76.10;;;4.99;58.99;100809.09;4950280;28;20036;-80
2023/04/26 04:24:34;;;;;;;18.92;7.28;;;5.70;76.30;;;4.99;59.04;100814.38;4955434;28;20047;-80
2023/04/26 04:27:02;;;;;;;16.77;7.68;;;5.70;76.60;;;5.00;59.18;100823.97;4958057;28;20651;-81
2023/04/26 04:29:29;;;;;;;14.57;7.18;;;5.70;76.60;;;4.98;59.28;100810.09;4961193;28;20054;-79
2023/04/26 04:31:57;;;;;;;15.07;7.72;;;5.70;76.60;;;4.97;59.18;100808.41;4951564;28;20496;-80
2023/04/26 04:34:26;;;;;;;15.65;7.45;;;5.70;76.60;;;4.97;59.24;100816.34;4951620;28;20519;-82
2023/04/26 04:36:53;;;;;;;20.30;8.27;;;5.70;76.80;;;4.96;59.72;100812.06;4952321;28;20803;-81
2023/04/26 04:39:28;;;;;;;18.83;8.55;;;5.90;77.10;;;4.98;60.02;100822.44;4948635;28;20050;-82
2023/04/26 04:41:57;;;;;;;18.65;8.52;;;5.70;77.00;;;4.97;59.66;100824.28;4948859;28;20642;-81
2023/04/26 04:44:29;;;;;;;17.83;8.60;;;5.70;76.90;;;4.98;59.92;100823.31;4958803;28;20042;-83
2023/04/26 04:46:57;;;;;;;16.50;8.50;;;5.70;76.80;;;5.14;59.42;100825.09;4967072;28;20078;-82
2023/04/26 04:52:05;;;;;;;19.33;8.25;;;5.90;76.50;;;5.41;59.19;100818.59;5011760;28;20048;-82
2023/04/26 04:54:34;;;;;;;17.50;8.43;;;6.10;76.30;;;5.49;59.18;100820.41;5017976;28;20041;-81
2023/04/26 04:57:03;;;;;;;19.20;8.50;;;6.20;76.20;;;5.54;59.54;100829.50;5000285;28;20041;-83
2023/04/26 04:59:32;;;;;;;13.88;8.27;;;6.30;76.10;;;5.64;59.24;100830.13;5005488;28;20049;-83
2023/04/26 05:02:00;;;;;;;18.73;9.10;;;6.40;76.10;;;5.76;59.43;100830.59;4997483;28;20049;-85
2023/04/26 05:04:27;;;;;;;19.67;8.95;;;6.50;76.20;;;5.85;59.08;100826.91;5002836;28;20473;-87
2023/04/26 05:06:55;;;;;;;18.73;9.63;;;6.60;76.40;;;5.92;59.25;100827.91;4983254;28;20051;-86
2023/04/26 05:09:25;;;;;;;20.73;9.80;;;6.60;76.10;;;6.00;59.08;100834.97;5009832;28;20053;-78
2023/04/26 05:11:53;;;;;;;16.30;8.25;;;6.70;76.20;;;6.06;58.76;100834.31;4974500;28;20053;-81
2023/04/26 05:14:20;;;;;;;16.67;8.32;;;6.80;76.00;;;6.13;59.13;100837.06;4983493;28;20047;-84
2023/04/26 05:16:48;;;;;;;17.50;8.32;;;6.80;76.00;;;6.20;59.12;100840.69;4995542;28;20115;-84
2023/04/26 05:19:15;;;;;;;16.75;8.48;;;6.90;76.20;;;6.26;59.31;100842.66;4988435;28;20038;-82
2023/04/26 05:21:42;;;;;;;17.48;8.55;;;7.00;76.40;;;6.34;59.58;100847.06;4982717;28;20083;-84
2023/04/26 05:24:10;;;;;;;17.13;8.55;;;7.10;76.70;;;6.40;59.43;100841.09;5002716;28;20053;-83
2023/04/26 05:26:39;;;;;;;15.90;8.77;;;7.10;76.60;;;6.49;59.31;100849.78;5002627;28;20070;-84
2023/04/26 05:29:12;;;;;;;19.33;8.18;;;7.20;76.40;;;6.55;59.43;100843.81;4986862;28;20054;-87
2023/04/26 05:32:03;;;;;;;14.13;8.35;;;7.20;76.40;;;6.63;59.07;100844.56;4972785;28;20069;-85
2023/04/26 05:34:51;;;;;;;16.80;8.65;;;7.30;76.40;;;6.69;59.58;100857.13;4983932;28;20136;-88
2023/04/26 05:37:18;;;;;;;17.70;8.93;;;7.40;76.80;;;6.75;59.90;100854.75;4984614;28;20134;-87
2023/04/26 05:39:45;;;;;;;20.30;10.93;;;7.40;77.30;;;6.81;60.36;100859.34;4971032;28;20047;-87
2023/04/26 05:42:14;;;;;;;22.52;11.20;;;7.50;78.00;;;6.88;60.27;100861.13;4997014;28;20043;-87
2023/04/26 05:44:41;;;;;;;25.25;10.98;;;7.70;78.40;;;6.92;60.47;100858.94;4985617;28;20046;-89
2023/04/26 05:47:09;;;;;;;23.65;11.30;;;7.60;78.00;;;6.97;60.33;100859.22;5004274;28;20058;-87
2023/04/26 05:49:36;;;;;;;22.98;11.68;;;7.60;77.90;;;7.03;60.62;100861.19;4981277;28;20042;-86
2023/04/26 05:52:05;;;;;;;23.23;11.55;;;7.60;78.20;;;7.10;60.77;100861.28;5010791;28;20125;-86
2023/04/26 05:54:32;;;;;;;24.42;11.93;;;7.80;78.40;;;7.17;61.13;100864.84;4987154;28;20132;-87
2023/04/26 05:56:59;;;;;;;25.95;11.68;;;7.80;79.00;;;7.27;60.69;100869.91;4992248;28;20057;-86
2023/04/26 05:59:31;;;;;;;21.27;11.40;;;7.90;78.80;;;7.35;61.10;100869.84;5010187;28;20581;-87
2023/04/26 06:02:00;;;;;;;28.38;11.57;;;8.20;79.20;;;7.45;60.88;100873.06;4992455;28;20057;-87
2023/04/26 06:04:27;;;;;;;26.98;11.73;;;8.10;78.60;;;7.53;60.53;100872.16;5006615;28;20987;-87
2023/04/26 06:07:20;;;;;;;23.80;12.40;;;8.20;78.40;;;7.66;60.55;100875.00;5000633;28;20062;-86
2023/04/26 06:09:48;;;;;;;25.88;12.02;;;8.30;78.20;;;7.73;60.29;100868.78;4986134;28;20073;-87
2023/04/26 06:12:16;;;;;;;25.33;11.73;;;8.30;78.10;;;7.80;60.14;100871.53;4999271;28;20045;-89
2023/04/26 06:14:46;;;;;;;26.10;11.50;;;8.40;77.20;;;7.86;59.87;100870.00;5009565;28;20050;-86
2023/04/26 06:17:17;;;;;;;25.15;11.98;;;8.50;77.40;;;7.93;59.90;100877.03;4992080;28;20425;-87
2023/04/26 06:19:45;;;;;;;25.08;12.18;;;8.50;77.80;;;7.98;59.82;100876.47;5002670;28;20069;-88
2023/04/26 06:22:12;;;;;;;27.50;13.25;;;8.70;77.40;;;8.04;59.77;100882.88;5006621;28;20588;-87
2023/04/26 06:24:42;;;;;;;26.30;12.60;;;8.70;77.60;;;8.08;59.86;100886.81;4999219;28;20042;-90
2023/04/26 06:27:10;;;;;;;28.65;12.30;;;8.80;77.40;;;8.21;60.02;100887.81;5004720;28;20438;-85
2023/04/26 06:29:38;;;;;;;26.23;12.35;;;8.90;77.50;;;8.36;59.73;100884.31;4992918;28;20057;-87
2023/04/26 06:32:07;;;;;;;27.98;12.73;;;9.00;77.00;;;8.48;59.09;100890.81;5012992;28;20046;-87
2023/04/26 06:34:36;;;;;;;29.77;11.95;;;9.10;76.70;;;8.49;58.03;100892.47;4989202;28;20700;-85
2023/04/26 06:37:03;;;;;;;29.45;13.38;;;9.20;75.20;;;8.59;58.46;100889.50;5005702;28;20074;-87
2023/04/26 06:39:32;;;;;;;35.33;15.25;;;9.30;75.60;;;8.71;58.04;100886.16;5001670;28;20056;-86
2023/04/26 06:42:00;;;;;;;33.65;14.23;;;9.40;75.20;;;8.84;57.90;100892.66;5014633;28;20136;-86
2023/04/26 06:44:48;;;;;;;30.60;13.23;;;9.50;75.00;;;8.98;57.33;100881.13;5017755;28;20104;-87
2023/04/26 06:47:18;;;;;;;34.05;13.00;;;9.70;74.30;;;9.10;57.23;100889.41;4997974;28;20045;-87
2023/04/26 06:49:46;;;;;;;36.58;13.38;;;9.80;73.90;;;9.22;56.49;100883.41;5008769;28;20120;-85
2023/04/26 06:52:13;;;;;;;32.13;13.30;;;9.90;73.30;;;9.31;57.00;100885.91;5007792;28;20144;-85
2023/04/26 06:54:40;;;;;;;29.80;11.98;;;10.00;73.90;;;9.35;55.99;100890.66;5010695;28;20042;-87
2023/04/26 06:57:07;;;;;;;24.63;10.23;;;10.10;72.60;;;9.37;55.19;100882.47;5008166;28;20505;-86
2023/04/26 06:59:35;;;;;;;24.58;10.43;;;10.10;71.50;;;9.41;54.96;100875.75;5002566;28;20125;-85
2023/04/26 07:02:02;;;;;;;22.50;10.05;;;10.20;71.40;;;9.46;55.22;100871.47;5002791;28;20046;-86
2023/04/26 07:04:31;;;;;;;30.10;11.73;;;10.20;71.50;;;9.53;55.43;100869.69;5013574;28;20054;-88
2023/04/26 07:06:58;;;;;;;22.17;10.02;;;10.30;71.70;;;9.59;54.90;100880.59;5003579;28;20061;-84
2023/04/26 07:09:25;;;;;;;23.27;10.55;;;10.30;71.30;;;9.61;54.34;100879.34;5004968;28;20482;-87
2023/04/26 07:11:52;;;;;;;21.00;8.98;;;10.40;70.60;;;9.62;54.28;100877.53;5011042;28;20045;-86
2023/04/26 07:14:20;;;;;;;22.15;8.75;;;10.30;70.40;;;9.60;54.46;100883.03;5012409;28;20490;-86
2023/04/26 07:16:47;;;;;;;23.13;9.38;;;10.30;70.60;;;9.55;54.35;100882.81;5018469;28;20050;-86
2023/04/26 07:19:14;;;;;;;22.40;10.15;;;10.30;70.70;;;9.49;53.49;100878.25;5008031;28;20432;-88
2023/04/26 07:21:43;;;;;;;23.83;9.48;;;10.30;69.70;;;9.46;54.03;100876.78;5008491;28;20041;-88
2023/04/26 07:24:12;;;;;;;28.65;8.40;;;10.20;70.00;;;9.46;53.83;100883.97;5010766;28;20034;-88
2023/04/26 07:26:40;;;;;;;19.05;6.25;;;10.20;69.70;;;9.58;54.63;100885.09;5008232;28;20054;-85
2023/04/26 07:29:07;;;;;;;21.30;7.53;;;10.30;71.10;;;9.69;54.85;100878.41;5010331;28;20113;-86
2023/04/26 07:31:34;;;;;;;25.33;8.55;;;10.40;70.90;;;9.71;53.85;100881.69;5008249;28;20121;-87
2023/04/26 07:34:01;;;;;;;18.25;4.38;;;10.40;69.80;;;9.70;53.49;100888.84;5023701;28;20033;-86
2023/04/26 07:36:30;;;;;;;13.35;4.32;;;10.50;69.40;;;9.80;53.15;100883.16;5006331;28;20732;-87
2023/04/26 07:38:58;;;;;;;10.57;4.63;;;10.60;69.00;;;9.75;52.28;100883.75;5004252;28;20046;-87
2023/04/26 07:41:26;;;;;;;14.23;5.88;;;10.50;68.10;;;9.73;52.79;100880.47;5006002;28;20053;-86
2023/04/26 07:43:53;;;;;;;16.27;4.43;;;10.50;68.70;;;9.74;52.36;100889.28;5009070;28;20042;-87
2023/04/26 07:46:20;;;;;;;14.85;3.50;;;10.50;68.00;;;9.84;51.91;100880.94;5005709;28;20523;-86
2023/04/26 07:48:47;;;;;;;16.80;5.35;;;10.60;67.50;;;9.87;51.68;100883.22;5008945;28;20112;-86
2023/04/26 07:51:15;;;;;;;12.07;4.72;;;10.70;67.60;;;9.77;51.64;100876.41;5008008;28;20054;-88
2023/04/26 07:53:42;;;;;;;14.77;4.05;;;10.60;67.20;;;9.77;51.96;100876.41;5006834;28;20066;-89
2023/04/26 07:56:11;;;;;;;11.93;2.90;;;10.60;67.40;;;9.80;51.93;100878.66;4994827;28;20141;-86
2023/04/26 07:58:39;;;;;;;10.18;3.13;;;10.60;67.00;;;9.85;52.07;100882.59;5008233;28;20045;-87
2023/04/26 08:01:07;;;;;;;13.98;3.20;;;10.60;67.30;;;9.85;50.26;100879.91;5004687;28;20037;-86
2023/04/26 08:03:35;;;;;;;9.18;3.33;;;10.60;65.20;;;9.83;50.65;100873.97;5011733;28;20125;-90
2023/04/26 08:06:02;;;;;;;15.15;3.35;;;10.60;65.80;;;9.83;49.29;100876.66;5015034;28;20488;-86
2023/04/26 08:08:31;;;;;;;10.60;3.10;;;10.60;64.00;;;9.76;48.41;100877.44;5011012;28;20498;-86
2023/04/26 08:10:58;;;;;;;10.27;3.15;;;10.50;63.00;;;9.72;49.50;100880.69;5012280;28;20041;-85
2023/04/26 08:13:26;;;;;;;17.92;3.60;;;10.50;64.50;;;9.70;49.56;100880.84;5012594;28;20711;-88
2023/04/26 08:15:54;;;;;;;9.13;3.40;;;10.50;64.50;;;9.70;50.03;100877.38;5009194;28;20127;-87
2023/04/26 08:18:21;;;;;;;12.27;4.38;;;10.50;65.20;;;9.76;50.73;100873.91;5006187;28;20414;-87
2023/04/26 08:20:48;;;;;;;14.45;4.78;;;10.50;65.90;;;9.75;50.58;100869.63;5006795;28;20111;-88
2023/04/26 08:23:18;;;;;;;17.25;4.93;;;10.50;65.80;;;9.79;51.87;100869.03;5017185;28;20068;-87
2023/04/26 08:25:45;;;;;;;12.63;4.93;;;10.60;67.50;;;9.87;51.58;100878.72;5012328;28;20050;-86
2023/04/26 08:28:14;;;;;;;14.55;4.90;;;10.60;66.90;;;9.78;50.34;100878.03;5004171;28;20042;-87
2023/04/26 08:30:43;;;;;;;18.35;4.05;;;10.60;65.30;;;9.73;50.00;100877.00;4996398;28;20124;-87
2023/04/26 08:33:10;;;;;;;13.13;4.50;;;10.50;65.40;;;9.70;49.65;100874.72;5001947;28;20498;-86
2023/04/26 08:35:38;;;;;;;11.57;3.72;;;10.60;64.40;;;9.75;50.52;100874.94;5010634;28;20042;-86
2023/04/26 08:38:05;;;;;;;11.38;4.13;;;10.50;65.60;;;9.77;50.67;100876.41;5003518;28;20042;-88
2023/04/26 08:40:32;;;;;;;12.55;4.35;;;10.50;65.60;;;9.80;49.54;100872.50;5015177;28;20131;-88
2023/04/26 08:42:59;;;;;;;11.77;4.13;;;10.60;64.10;;;9.88;52.29;100869.69;5002868;28;20562;-86
2023/04/26 08:45:27;;;;;;;12.20;4.28;;;10.60;67.90;;;9.90;48.37;100875.66;5007329;28;20565;-87
2023/04/26 08:48:03;;;;;;;10.82;4.53;;;10.60;62.60;;;9.76;47.80;100874.78;5003574;28;20121;-86
2023/04/26 08:50:32;;;;;;;14.15;4.53;;;10.60;62.00;;;9.74;48.79;100881.28;5001897;28;20049;-85
2023/04/26 08:52:59;;;;;;;13.27;4.53;;;10.50;63.50;;;9.76;48.81;100882.75;5001479;28;20049;-86
2023/04/26 08:55:28;;;;;;;10.75;4.63;;;10.60;63.40;;;9.76;49.69;100889.91;5006980;28;20136;-84
2023/04/26 08:57:55;;;;;;;11.77;4.80;;;10.50;64.20;;;9.70;49.67;100890.69;5014328;28;20562;-86
2023/04/26 09:00:23;;;;;;;13.48;5.53;;;10.50;64.40;;;9.66;50.61;100890.28;5007246;28;20054;-85
2023/04/26 09:02:52;;;;;;;13.15;5.43;;;10.50;65.80;;;9.62;50.08;100891.69;4990351;28;20092;-86
2023/04/26 09:05:23;;;;;;;13.27;4.65;;;10.40;65.10;;;9.59;51.00;100891.25;5008138;28;20050;-81
2023/04/26 09:07:51;;;;;;;10.25;5.43;;;10.40;66.10;;;9.59;51.07;100894.72;4997866;28;20062;-85
2023/04/26 09:10:21;;;;;;;10.27;4.95;;;10.30;66.60;;;9.53;50.71;100899.00;5006569;28;20046;-85
2023/04/26 09:12:52;;;;;;;12.05;5.45;;;10.30;65.80;;;9.52;50.41;100892.03;5006794;28;20112;-86
2023/04/26 09:15:21;;;;;;;13.43;5.32;;;10.30;65.80;;;9.52;51.42;100885.88;5003381;28;20049;-84
2023/04/26 09:17:50;;;;;;;12.50;5.22;;;10.30;66.80;;;9.54;50.65;100897.16;5008990;28;20058;-86
2023/04/26 09:20:24;;;;;;;14.57;5.30;;;10.30;65.70;;;9.53;50.33;100888.34;5009675;28;20037;-84
2023/04/26 09:22:53;;;;;;;10.82;4.88;;;10.30;65.60;;;9.50;50.26;100890.56;4999631;28;20049;-85
2023/04/26 09:25:29;;;;;;;13.73;5.50;;;10.30;65.30;;;9.50;50.38;100890.56;5005772;28;20143;-86
2023/04/26 09:27:57;;;;;;;16.98;5.68;;;10.20;65.40;;;9.54;50.92;100878.50;5004275;28;20615;-84
2023/04/26 09:30:24;;;;;;;12.95;5.07;;;10.30;66.20;;;9.56;49.85;100881.78;5006357;28;20050;-84
2023/04/26 09:32:54;;;;;;;10.57;5.15;;;10.30;65.00;;;9.59;50.78;100881.41;5003157;28;20153;-85
2023/04/26 09:35:31;;;;;;;15.35;5.60;;;10.30;65.90;;;9.65;50.57;100885.94;5004800;28;20058;-86
2023/04/26 09:38:00;;;;;;;11.93;5.50;;;10.40;65.70;;;9.66;50.62;100890.28;5004162;28;20056;-86
2023/04/26 09:40:30;;;;;;;14.07;6.47;;;10.40;65.70;;;9.69;50.00;100886.38;5004341;28;20045;-86
2023/04/26 09:43:05;;;;;;;14.05;6.43;;;10.40;64.80;;;9.66;50.39;100887.63;5007807;28;20037;-86
2023/04/26 09:45:43;;;;;;;14.13;6.55;;;10.40;65.50;;;9.68;50.64;100884.75;5010435;28;20050;-84
2023/04/26 09:48:22;;;;;;;17.45;5.80;;;10.50;65.70;;;9.65;48.96;100877.97;5008726;28;20053;-84
2023/04/26 09:50:53;;;;;;;15.43;5.07;;;10.40;63.70;;;9.58;49.69;100876.28;5007759;28;20046;-84
2023/04/26 09:53:33;;;;;;;15.20;4.30;;;10.40;64.70;;;9.61;49.80;100878.53;5006443;28;20042;-87
2023/04/26 09:56:08;;;;;;;14.88;4.70;;;10.30;64.80;;;9.55;48.42;100872.16;5013812;28;20042;-78
2023/04/26 09:58:38;;;;;;;15.10;5.03;;;10.30;63.10;;;9.51;49.10;100869.06;5011017;28;20502;-79
2023/04/26 10:01:06;;;;;;;10.98;4.75;;;10.30;63.80;;;9.54;50.08;100860.69;5007121;28;20740;-81
2023/04/26 10:03:36;;;;;;;9.35;4.55;;;10.30;65.20;;;9.59;49.87;100865.44;5014540;28;20101;-79
2023/04/26 10:06:05;;;;;;;15.23;5.30;;;10.40;64.50;;;9.57;49.16;100862.16;5009200;28;20442;-79
2023/04/26 10:08:33;;;;;;;12.82;5.03;;;10.30;63.90;;;9.64;50.36;100849.69;5009842;28;20046;-80
2023/04/26 10:11:03;;;;;;;12.07;5.43;;;10.40;65.30;;;9.76;50.33;100860.59;5017079;28;20081;-78
2023/04/26 10:13:32;;;;;;;13.45;4.65;;;10.50;65.20;;;9.80;50.34;100854.69;5009652;28;20038;-78
2023/04/26 10:16:00;;;;;;;13.05;4.88;;;10.70;65.30;;;9.81;48.94;100855.53;5019781;28;20453;-78
2023/04/26 10:18:28;;;;;;;13.40;4.38;;;10.60;63.40;;;9.83;48.91;100864.16;5031111;28;20044;-79
2023/04/26 10:21:00;;;;;;;12.65;4.90;;;10.60;63.30;;;9.76;47.86;100853.47;5019784;28;20431;-79
2023/04/26 10:23:29;;;;;;;12.82;4.47;;;10.60;62.10;;;9.79;48.35;100858.38;5010571;28;20073;-78
2023/04/26 10:25:56;;;;;;;12.48;4.38;;;10.60;62.60;;;9.76;48.04;100864.13;5011873;28;20069;-79